sensor_id;sensor_type;location;lat;lon;timestamp;P1;durP1;ratioP1;P2;durP2;ratioP2
59308;SDS011;48433;53.016;-2.260;2023-09-30T00:02:09;12.35;;;2.78;;
59308;SDS011;48433;53.016;-2.260;2023-09-30T00:04:39;8.38;;;2.08;;
59308;SDS011;48433;53.016;-2.260;2023-09-30T00:07:07;11.93;;;2.17;;
59308;SDS011;48433;53.016;-2.260;2023-09-30T00:09:35;13.82;;;1.98;;
59308;SDS011;48433;53.016;-2.260;2023-09-30T00:12:03;10.93;;;2.50;;
59308;SDS011;48433;53.016;-2.260;2023-09-30T00:14:31;9.90;;;3.40;;
59308;SDS011;48433;53.016;-2.260;2023-09-30T00:16:59;12.13;;;2.10;;
59308;SDS011;48433;53.016;-2.260;2023-09-30T00:19:27;12.63;;;2.35;;
59308;SDS011;48433;53.016;-2.260;2023-09-30T00:21:55;8.55;;;1.90;;
59308;SDS011;48433;53.016;-2.260;2023-09-30T00:24:22;14.02;;;2.90;;
59308;SDS011;48433;53.016;-2.260;2023-09-30T00:26:50;7.07;;;2.53;;
59308;SDS011;48433;53.016;-2.260;2023-09-30T00:29:17;10.80;;;2.40;;
59308;SDS011;48433;53.016;-2.260;2023-09-30T00:31:45;11.38;;;2.60;;
59308;SDS011;48433;53.016;-2.260;2023-09-30T00:34:13;11.68;;;3.40;;
59308;SDS011;48433;53.016;-2.260;2023-09-30T00:36:40;10.13;;;2.22;;
59308;SDS011;48433;53.016;-2.260;2023-09-30T00:39:08;10.30;;;2.25;;
59308;SDS011;48433;53.016;-2.260;2023-09-30T00:41:38;14.05;;;2.95;;
59308;SDS011;48433;53.016;-2.260;2023-09-30T00:44:07;17.98;;;2.95;;
59308;SDS011;48433;53.016;-2.260;2023-09-30T00:46:35;12.35;;;2.78;;
59308;SDS011;48433;53.016;-2.260;2023-09-30T00:49:04;16.35;;;3.03;;
59308;SDS011;48433;53.016;-2.260;2023-09-30T00:51:33;12.45;;;2.97;;
59308;SDS011;48433;53.016;-2.260;2023-09-30T00:54:01;12.68;;;2.92;;
59308;SDS011;48433;53.016;-2.260;2023-09-30T00:56:30;12.23;;;2.40;;
59308;SDS011;48433;53.016;-2.260;2023-09-30T00:58:58;14.30;;;3.67;;
59308;SDS011;48433;53.016;-2.260;2023-09-30T01:01:26;11.77;;;3.50;;
59308;SDS011;48433;53.016;-2.260;2023-09-30T01:03:54;12.20;;;2.22;;
59308;SDS011;48433;53.016;-2.260;2023-09-30T01:06:22;12.05;;;2.67;;
59308;SDS011;48433;53.016;-2.260;2023-09-30T01:08:50;11.48;;;3.00;;
59308;SDS011;48433;53.016;-2.260;2023-09-30T01:11:18;13.57;;;2.90;;
59308;SDS011;48433;53.016;-2.260;2023-09-30T01:13:46;16.65;;;3.20;;
59308;SDS011;48433;53.016;-2.260;2023-09-30T01:16:14;18.40;;;3.55;;
59308;SDS011;48433;53.016;-2.260;2023-09-30T01:18:42;17.85;;;2.95;;
59308;SDS011;48433;53.016;-2.260;2023-09-30T01:21:10;13.23;;;2.78;;
59308;SDS011;48433;53.016;-2.260;2023-09-30T01:23:41;10.48;;;2.38;;
59308;SDS011;48433;53.016;-2.260;2023-09-30T01:26:12;8.88;;;2.63;;
59308;SDS011;48433;53.016;-2.260;2023-09-30T01:28:40;12.30;;;3.13;;
59308;SDS011;48433;53.016;-2.260;2023-09-30T01:31:09;11.23;;;3.55;;
59308;SDS011;48433;53.016;-2.260;2023-09-30T01:33:36;12.00;;;2.95;;
59308;SDS011;48433;53.016;-2.260;2023-09-30T01:36:05;14.85;;;3.50;;
59308;SDS011;48433;53.016;-2.260;2023-09-30T01:38:33;13.93;;;4.03;;
59308;SDS011;48433;53.016;-2.260;2023-09-30T01:41:01;17.67;;;4.50;;
59308;SDS011;48433;53.016;-2.260;2023-09-30T01:43:29;14.88;;;2.80;;
59308;SDS011;48433;53.016;-2.260;2023-09-30T01:45:57;18.05;;;4.13;;
59308;SDS011;48433;53.016;-2.260;2023-09-30T01:48:25;13.80;;;3.40;;
59308;SDS011;48433;53.016;-2.260;2023-09-30T01:50:53;11.25;;;3.17;;
59308;SDS011;48433;53.016;-2.260;2023-09-30T01:53:21;14.43;;;3.22;;
59308;SDS011;48433;53.016;-2.260;2023-09-30T01:55:49;16.10;;;3.15;;
59308;SDS011;48433;53.016;-2.260;2023-09-30T01:58:16;15.68;;;3.15;;
59308;SDS011;48433;53.016;-2.260;2023-09-30T02:00:44;14.18;;;3.83;;
59308;SDS011;48433;53.016;-2.260;2023-09-30T02:03:12;16.33;;;3.92;;
59308;SDS011;48433;53.016;-2.260;2023-09-30T02:05:40;15.40;;;4.95;;
59308;SDS011;48433;53.016;-2.260;2023-09-30T02:08:08;16.83;;;4.03;;
59308;SDS011;48433;53.016;-2.260;2023-09-30T02:10:36;13.07;;;3.90;;
59308;SDS011;48433;53.016;-2.260;2023-09-30T02:13:03;12.98;;;3.45;;
59308;SDS011;48433;53.016;-2.260;2023-09-30T02:15:33;13.60;;;3.10;;
59308;SDS011;48433;53.016;-2.260;2023-09-30T02:18:01;12.82;;;3.72;;
59308;SDS011;48433;53.016;-2.260;2023-09-30T02:20:31;9.50;;;3.03;;
59308;SDS011;48433;53.016;-2.260;2023-09-30T02:22:59;11.75;;;2.95;;
59308;SDS011;48433;53.016;-2.260;2023-09-30T02:25:29;13.43;;;3.42;;
59308;SDS011;48433;53.016;-2.260;2023-09-30T02:27:57;18.20;;;3.75;;
59308;SDS011;48433;53.016;-2.260;2023-09-30T02:30:25;8.20;;;3.20;;
59308;SDS011;48433;53.016;-2.260;2023-09-30T02:32:54;10.32;;;4.05;;
59308;SDS011;48433;53.016;-2.260;2023-09-30T02:35:25;8.25;;;2.33;;
59308;SDS011;48433;53.016;-2.260;2023-09-30T02:37:53;14.73;;;3.40;;
59308;SDS011;48433;53.016;-2.260;2023-09-30T02:40:21;13.60;;;3.38;;
59308;SDS011;48433;53.016;-2.260;2023-09-30T02:42:51;11.70;;;2.57;;
59308;SDS011;48433;53.016;-2.260;2023-09-30T02:45:19;9.63;;;2.95;;
59308;SDS011;48433;53.016;-2.260;2023-09-30T02:47:47;11.30;;;2.72;;
59308;SDS011;48433;53.016;-2.260;2023-09-30T02:50:15;14.20;;;3.50;;
59308;SDS011;48433;53.016;-2.260;2023-09-30T02:52:43;9.95;;;2.83;;
59308;SDS011;48433;53.016;-2.260;2023-09-30T02:55:11;12.38;;;3.08;;
59308;SDS011;48433;53.016;-2.260;2023-09-30T02:57:39;10.32;;;2.88;;
59308;SDS011;48433;53.016;-2.260;2023-09-30T03:00:08;10.45;;;2.67;;
59308;SDS011;48433;53.016;-2.260;2023-09-30T03:02:55;10.02;;;3.08;;
59308;SDS011;48433;53.016;-2.260;2023-09-30T03:05:23;10.65;;;2.85;;
59308;SDS011;48433;53.016;-2.260;2023-09-30T03:07:50;12.73;;;2.80;;
59308;SDS011;48433;53.016;-2.260;2023-09-30T03:10:18;8.18;;;2.25;;
59308;SDS011;48433;53.016;-2.260;2023-09-30T03:12:51;13.93;;;4.25;;
59308;SDS011;48433;53.016;-2.260;2023-09-30T03:15:19;8.50;;;2.90;;
59308;SDS011;48433;53.016;-2.260;2023-09-30T03:17:47;10.25;;;2.72;;
59308;SDS011;48433;53.016;-2.260;2023-09-30T03:20:20;8.80;;;2.30;;
59308;SDS011;48433;53.016;-2.260;2023-09-30T03:22:52;8.95;;;2.33;;
59308;SDS011;48433;53.016;-2.260;2023-09-30T03:25:20;11.85;;;2.65;;
59308;SDS011;48433;53.016;-2.260;2023-09-30T03:27:48;9.05;;;2.58;;
59308;SDS011;48433;53.016;-2.260;2023-09-30T03:30:16;14.13;;;2.30;;
59308;SDS011;48433;53.016;-2.260;2023-09-30T03:32:45;12.30;;;2.92;;
59308;SDS011;48433;53.016;-2.260;2023-09-30T03:35:13;9.65;;;2.30;;
59308;SDS011;48433;53.016;-2.260;2023-09-30T03:37:45;17.70;;;2.92;;
59308;SDS011;48433;53.016;-2.260;2023-09-30T03:40:14;10.15;;;2.58;;
59308;SDS011;48433;53.016;-2.260;2023-09-30T03:42:46;9.90;;;2.47;;
59308;SDS011;48433;53.016;-2.260;2023-09-30T03:45:17;13.10;;;2.63;;
59308;SDS011;48433;53.016;-2.260;2023-09-30T03:47:46;11.10;;;2.40;;
59308;SDS011;48433;53.016;-2.260;2023-09-30T03:50:15;11.30;;;2.58;;
59308;SDS011;48433;53.016;-2.260;2023-09-30T03:52:43;12.50;;;2.90;;
59308;SDS011;48433;53.016;-2.260;2023-09-30T03:55:14;18.80;;;2.85;;
59308;SDS011;48433;53.016;-2.260;2023-09-30T03:57:46;16.55;;;3.83;;
59308;SDS011;48433;53.016;-2.260;2023-09-30T04:00:15;14.63;;;3.15;;
59308;SDS011;48433;53.016;-2.260;2023-09-30T04:02:48;9.13;;;2.42;;
59308;SDS011;48433;53.016;-2.260;2023-09-30T04:05:18;8.68;;;2.30;;
59308;SDS011;48433;53.016;-2.260;2023-09-30T04:07:46;12.43;;;2.95;;
59308;SDS011;48433;53.016;-2.260;2023-09-30T04:10:14;10.45;;;2.67;;
59308;SDS011;48433;53.016;-2.260;2023-09-30T04:12:45;17.23;;;3.92;;
59308;SDS011;48433;53.016;-2.260;2023-09-30T04:15:12;9.55;;;2.53;;
59308;SDS011;48433;53.016;-2.260;2023-09-30T04:17:40;14.23;;;2.70;;
59308;SDS011;48433;53.016;-2.260;2023-09-30T04:20:08;11.68;;;3.10;;
59308;SDS011;48433;53.016;-2.260;2023-09-30T04:22:37;12.10;;;3.00;;
59308;SDS011;48433;53.016;-2.260;2023-09-30T04:25:05;13.25;;;4.10;;
59308;SDS011;48433;53.016;-2.260;2023-09-30T04:27:36;10.55;;;3.38;;
59308;SDS011;48433;53.016;-2.260;2023-09-30T04:30:04;10.52;;;3.00;;
59308;SDS011;48433;53.016;-2.260;2023-09-30T04:32:36;13.20;;;2.95;;
59308;SDS011;48433;53.016;-2.260;2023-09-30T04:35:05;13.60;;;3.83;;
59308;SDS011;48433;53.016;-2.260;2023-09-30T04:37:35;10.48;;;2.50;;
59308;SDS011;48433;53.016;-2.260;2023-09-30T04:40:04;14.27;;;3.75;;
59308;SDS011;48433;53.016;-2.260;2023-09-30T04:42:34;6.65;;;2.28;;
59308;SDS011;48433;53.016;-2.260;2023-09-30T04:45:03;12.02;;;2.97;;
59308;SDS011;48433;53.016;-2.260;2023-09-30T04:47:34;14.23;;;3.67;;
59308;SDS011;48433;53.016;-2.260;2023-09-30T04:50:02;17.10;;;3.05;;
59308;SDS011;48433;53.016;-2.260;2023-09-30T04:52:31;16.27;;;4.55;;
59308;SDS011;48433;53.016;-2.260;2023-09-30T04:54:59;11.85;;;2.88;;
59308;SDS011;48433;53.016;-2.260;2023-09-30T04:57:27;13.85;;;3.70;;
59308;SDS011;48433;53.016;-2.260;2023-09-30T04:59:55;14.23;;;3.67;;
59308;SDS011;48433;53.016;-2.260;2023-09-30T05:02:23;9.77;;;2.92;;
59308;SDS011;48433;53.016;-2.260;2023-09-30T05:04:51;20.20;;;3.47;;
59308;SDS011;48433;53.016;-2.260;2023-09-30T05:07:20;11.05;;;3.58;;
59308;SDS011;48433;53.016;-2.260;2023-09-30T05:09:49;11.13;;;3.42;;
59308;SDS011;48433;53.016;-2.260;2023-09-30T05:12:16;11.73;;;2.60;;
59308;SDS011;48433;53.016;-2.260;2023-09-30T05:14:44;11.27;;;2.85;;
59308;SDS011;48433;53.016;-2.260;2023-09-30T05:17:12;13.45;;;2.85;;
59308;SDS011;48433;53.016;-2.260;2023-09-30T05:19:40;13.73;;;3.47;;
59308;SDS011;48433;53.016;-2.260;2023-09-30T05:22:08;11.68;;;2.65;;
59308;SDS011;48433;53.016;-2.260;2023-09-30T05:24:35;12.10;;;3.10;;
59308;SDS011;48433;53.016;-2.260;2023-09-30T05:27:03;14.18;;;3.53;;
59308;SDS011;48433;53.016;-2.260;2023-09-30T05:29:31;10.15;;;2.67;;
59308;SDS011;48433;53.016;-2.260;2023-09-30T05:32:00;13.80;;;3.50;;
59308;SDS011;48433;53.016;-2.260;2023-09-30T05:34:28;16.92;;;4.25;;
59308;SDS011;48433;53.016;-2.260;2023-09-30T05:36:55;14.18;;;4.18;;
59308;SDS011;48433;53.016;-2.260;2023-09-30T05:39:23;15.52;;;2.88;;
59308;SDS011;48433;53.016;-2.260;2023-09-30T05:41:52;12.88;;;3.75;;
59308;SDS011;48433;53.016;-2.260;2023-09-30T05:44:20;12.68;;;3.08;;
59308;SDS011;48433;53.016;-2.260;2023-09-30T05:46:49;12.98;;;3.30;;
59308;SDS011;48433;53.016;-2.260;2023-09-30T05:49:17;12.80;;;2.60;;
59308;SDS011;48433;53.016;-2.260;2023-09-30T05:51:46;7.78;;;2.28;;
59308;SDS011;48433;53.016;-2.260;2023-09-30T05:54:14;9.30;;;3.00;;
59308;SDS011;48433;53.016;-2.260;2023-09-30T05:56:42;13.70;;;2.80;;
59308;SDS011;48433;53.016;-2.260;2023-09-30T05:59:10;13.75;;;2.83;;
59308;SDS011;48433;53.016;-2.260;2023-09-30T06:01:38;15.82;;;3.17;;
59308;SDS011;48433;53.016;-2.260;2023-09-30T06:04:06;13.60;;;3.13;;
59308;SDS011;48433;53.016;-2.260;2023-09-30T06:06:34;10.32;;;2.45;;
59308;SDS011;48433;53.016;-2.260;2023-09-30T06:09:02;13.27;;;3.35;;
59308;SDS011;48433;53.016;-2.260;2023-09-30T06:11:30;9.13;;;2.55;;
59308;SDS011;48433;53.016;-2.260;2023-09-30T06:13:57;13.10;;;2.97;;
59308;SDS011;48433;53.016;-2.260;2023-09-30T06:16:29;14.80;;;3.25;;
59308;SDS011;48433;53.016;-2.260;2023-09-30T06:18:58;8.18;;;2.33;;
59308;SDS011;48433;53.016;-2.260;2023-09-30T06:21:26;9.52;;;3.00;;
59308;SDS011;48433;53.016;-2.260;2023-09-30T06:23:56;12.40;;;2.95;;
59308;SDS011;48433;53.016;-2.260;2023-09-30T06:26:24;11.10;;;2.63;;
59308;SDS011;48433;53.016;-2.260;2023-09-30T06:28:52;10.13;;;2.42;;
59308;SDS011;48433;53.016;-2.260;2023-09-30T06:31:21;12.60;;;2.08;;
59308;SDS011;48433;53.016;-2.260;2023-09-30T06:33:50;11.57;;;2.63;;
59308;SDS011;48433;53.016;-2.260;2023-09-30T06:36:18;14.20;;;2.55;;
59308;SDS011;48433;53.016;-2.260;2023-09-30T06:38:45;10.20;;;2.95;;
59308;SDS011;48433;53.016;-2.260;2023-09-30T06:41:16;9.52;;;2.20;;
59308;SDS011;48433;53.016;-2.260;2023-09-30T06:43:44;7.78;;;2.28;;
59308;SDS011;48433;53.016;-2.260;2023-09-30T06:46:12;11.63;;;3.05;;
59308;SDS011;48433;53.016;-2.260;2023-09-30T06:48:40;12.60;;;2.83;;
59308;SDS011;48433;53.016;-2.260;2023-09-30T06:51:12;9.88;;;1.95;;
59308;SDS011;48433;53.016;-2.260;2023-09-30T06:53:42;13.43;;;2.63;;
59308;SDS011;48433;53.016;-2.260;2023-09-30T06:56:09;11.35;;;2.58;;
59308;SDS011;48433;53.016;-2.260;2023-09-30T06:58:40;13.75;;;2.50;;
59308;SDS011;48433;53.016;-2.260;2023-09-30T07:01:07;11.93;;;3.30;;
59308;SDS011;48433;53.016;-2.260;2023-09-30T07:03:35;15.00;;;3.42;;
59308;SDS011;48433;53.016;-2.260;2023-09-30T07:06:03;12.45;;;3.70;;
59308;SDS011;48433;53.016;-2.260;2023-09-30T07:08:30;11.80;;;3.70;;
59308;SDS011;48433;53.016;-2.260;2023-09-30T07:10:59;12.90;;;2.97;;
59308;SDS011;48433;53.016;-2.260;2023-09-30T07:13:27;15.80;;;3.70;;
59308;SDS011;48433;53.016;-2.260;2023-09-30T07:15:55;28.20;;;3.97;;
59308;SDS011;48433;53.016;-2.260;2023-09-30T07:18:22;12.15;;;3.70;;
59308;SDS011;48433;53.016;-2.260;2023-09-30T07:20:52;11.75;;;2.50;;
59308;SDS011;48433;53.016;-2.260;2023-09-30T07:23:20;11.73;;;2.50;;
59308;SDS011;48433;53.016;-2.260;2023-09-30T07:25:48;17.83;;;3.47;;
59308;SDS011;48433;53.016;-2.260;2023-09-30T07:28:16;9.90;;;2.42;;
59308;SDS011;48433;53.016;-2.260;2023-09-30T07:30:44;13.32;;;2.78;;
59308;SDS011;48433;53.016;-2.260;2023-09-30T07:33:12;14.55;;;3.00;;
59308;SDS011;48433;53.016;-2.260;2023-09-30T07:35:40;11.07;;;2.45;;
59308;SDS011;48433;53.016;-2.260;2023-09-30T07:38:07;16.27;;;3.15;;
59308;SDS011;48433;53.016;-2.260;2023-09-30T07:40:35;14.23;;;2.60;;
59308;SDS011;48433;53.016;-2.260;2023-09-30T07:43:03;11.93;;;2.92;;
59308;SDS011;48433;53.016;-2.260;2023-09-30T07:45:31;11.98;;;2.40;;
59308;SDS011;48433;53.016;-2.260;2023-09-30T07:47:59;11.60;;;2.55;;
59308;SDS011;48433;53.016;-2.260;2023-09-30T07:50:27;10.70;;;2.40;;
59308;SDS011;48433;53.016;-2.260;2023-09-30T07:52:55;9.98;;;2.50;;
59308;SDS011;48433;53.016;-2.260;2023-09-30T07:55:22;13.30;;;2.60;;
59308;SDS011;48433;53.016;-2.260;2023-09-30T07:57:50;12.95;;;3.10;;
59308;SDS011;48433;53.016;-2.260;2023-09-30T08:00:18;10.20;;;2.33;;
59308;SDS011;48433;53.016;-2.260;2023-09-30T08:02:48;12.73;;;3.08;;
59308;SDS011;48433;53.016;-2.260;2023-09-30T08:05:17;8.50;;;2.17;;
59308;SDS011;48433;53.016;-2.260;2023-09-30T08:07:45;11.85;;;2.88;;
59308;SDS011;48433;53.016;-2.260;2023-09-30T08:10:13;11.75;;;2.40;;
59308;SDS011;48433;53.016;-2.260;2023-09-30T08:12:44;8.88;;;3.17;;
59308;SDS011;48433;53.016;-2.260;2023-09-30T08:15:15;15.57;;;3.85;;
59308;SDS011;48433;53.016;-2.260;2023-09-30T08:17:43;9.95;;;2.78;;
59308;SDS011;48433;53.016;-2.260;2023-09-30T08:20:11;9.80;;;2.38;;
59308;SDS011;48433;53.016;-2.260;2023-09-30T08:22:41;12.30;;;2.67;;
59308;SDS011;48433;53.016;-2.260;2023-09-30T08:25:08;9.95;;;2.50;;
59308;SDS011;48433;53.016;-2.260;2023-09-30T08:27:37;11.40;;;2.75;;
59308;SDS011;48433;53.016;-2.260;2023-09-30T08:30:06;13.52;;;2.20;;
59308;SDS011;48433;53.016;-2.260;2023-09-30T08:32:34;7.93;;;2.40;;
59308;SDS011;48433;53.016;-2.260;2023-09-30T08:35:03;9.80;;;2.25;;
59308;SDS011;48433;53.016;-2.260;2023-09-30T08:37:31;11.70;;;2.42;;
59308;SDS011;48433;53.016;-2.260;2023-09-30T08:39:58;7.65;;;2.38;;
59308;SDS011;48433;53.016;-2.260;2023-09-30T08:42:27;10.43;;;2.10;;
59308;SDS011;48433;53.016;-2.260;2023-09-30T08:45:00;8.88;;;2.50;;
59308;SDS011;48433;53.016;-2.260;2023-09-30T08:47:29;10.30;;;2.25;;
59308;SDS011;48433;53.016;-2.260;2023-09-30T08:49:58;8.88;;;2.65;;
59308;SDS011;48433;53.016;-2.260;2023-09-30T08:52:34;11.05;;;2.88;;
59308;SDS011;48433;53.016;-2.260;2023-09-30T08:55:07;7.75;;;1.98;;
59308;SDS011;48433;53.016;-2.260;2023-09-30T08:57:40;11.38;;;2.53;;
59308;SDS011;48433;53.016;-2.260;2023-09-30T09:00:09;11.48;;;2.17;;
59308;SDS011;48433;53.016;-2.260;2023-09-30T09:02:39;8.43;;;1.98;;
59308;SDS011;48433;53.016;-2.260;2023-09-30T09:05:07;8.55;;;2.13;;
59308;SDS011;48433;53.016;-2.260;2023-09-30T09:07:36;7.45;;;2.15;;
59308;SDS011;48433;53.016;-2.260;2023-09-30T09:10:13;10.68;;;2.92;;
59308;SDS011;48433;53.016;-2.260;2023-09-30T09:12:41;10.75;;;1.90;;
59308;SDS011;48433;53.016;-2.260;2023-09-30T09:15:20;12.93;;;2.38;;
59308;SDS011;48433;53.016;-2.260;2023-09-30T09:17:51;9.43;;;1.70;;
59308;SDS011;48433;53.016;-2.260;2023-09-30T09:20:20;7.63;;;1.95;;
59308;SDS011;48433;53.016;-2.260;2023-09-30T09:22:50;12.85;;;2.47;;
59308;SDS011;48433;53.016;-2.260;2023-09-30T09:25:22;13.80;;;3.13;;
59308;SDS011;48433;53.016;-2.260;2023-09-30T09:27:51;8.52;;;1.90;;
59308;SDS011;48433;53.016;-2.260;2023-09-30T09:30:24;12.07;;;2.85;;
59308;SDS011;48433;53.016;-2.260;2023-09-30T09:32:54;7.95;;;1.90;;
59308;SDS011;48433;53.016;-2.260;2023-09-30T09:35:22;9.20;;;1.80;;
59308;SDS011;48433;53.016;-2.260;2023-09-30T09:38:10;11.10;;;2.47;;
59308;SDS011;48433;53.016;-2.260;2023-09-30T09:40:38;9.20;;;2.60;;
59308;SDS011;48433;53.016;-2.260;2023-09-30T09:43:07;11.13;;;2.08;;
59308;SDS011;48433;53.016;-2.260;2023-09-30T09:45:35;7.10;;;2.05;;
59308;SDS011;48433;53.016;-2.260;2023-09-30T09:48:05;9.75;;;2.30;;
59308;SDS011;48433;53.016;-2.260;2023-09-30T09:50:34;9.48;;;2.30;;
59308;SDS011;48433;53.016;-2.260;2023-09-30T09:55:34;8.10;;;1.90;;
59308;SDS011;48433;53.016;-2.260;2023-09-30T09:58:06;17.08;;;2.58;;
59308;SDS011;48433;53.016;-2.260;2023-09-30T10:00:35;12.45;;;3.55;;
59308;SDS011;48433;53.016;-2.260;2023-09-30T10:03:03;14.23;;;1.90;;
59308;SDS011;48433;53.016;-2.260;2023-09-30T10:05:31;11.90;;;3.15;;
59308;SDS011;48433;53.016;-2.260;2023-09-30T10:08:05;10.80;;;2.63;;
59308;SDS011;48433;53.016;-2.260;2023-09-30T10:10:36;13.70;;;2.47;;
59308;SDS011;48433;53.016;-2.260;2023-09-30T10:13:04;10.65;;;2.70;;
59308;SDS011;48433;53.016;-2.260;2023-09-30T10:20:43;18.85;;;3.83;;
59308;SDS011;48433;53.016;-2.260;2023-09-30T10:26:12;11.38;;;1.80;;
59308;SDS011;48433;53.016;-2.260;2023-09-30T10:28:43;9.85;;;1.75;;
59308;SDS011;48433;53.016;-2.260;2023-09-30T10:31:14;8.93;;;2.08;;
59308;SDS011;48433;53.016;-2.260;2023-09-30T10:36:30;10.55;;;1.95;;
59308;SDS011;48433;53.016;-2.260;2023-09-30T10:39:00;10.35;;;2.90;;
59308;SDS011;48433;53.016;-2.260;2023-09-30T10:44:31;11.52;;;1.90;;
59308;SDS011;48433;53.016;-2.260;2023-09-30T10:47:34;11.23;;;1.90;;
59308;SDS011;48433;53.016;-2.260;2023-09-30T10:49:51;12.88;;;2.78;;
59308;SDS011;48433;53.016;-2.260;2023-09-30T10:52:21;12.98;;;2.83;;
59308;SDS011;48433;53.016;-2.260;2023-09-30T10:54:50;11.50;;;3.40;;
59308;SDS011;48433;53.016;-2.260;2023-09-30T10:57:27;14.38;;;3.72;;
59308;SDS011;48433;53.016;-2.260;2023-09-30T11:00:08;11.07;;;2.97;;
59308;SDS011;48433;53.016;-2.260;2023-09-30T11:02:47;14.88;;;3.15;;
59308;SDS011;48433;53.016;-2.260;2023-09-30T11:05:17;16.55;;;2.80;;
59308;SDS011;48433;53.016;-2.260;2023-09-30T11:07:47;16.15;;;2.53;;
59308;SDS011;48433;53.016;-2.260;2023-09-30T11:10:16;11.82;;;3.33;;
59308;SDS011;48433;53.016;-2.260;2023-09-30T11:12:55;11.10;;;2.70;;
59308;SDS011;48433;53.016;-2.260;2023-09-30T11:15:24;14.75;;;3.55;;
59308;SDS011;48433;53.016;-2.260;2023-09-30T11:17:52;13.07;;;2.78;;
59308;SDS011;48433;53.016;-2.260;2023-09-30T11:20:20;15.15;;;3.10;;
59308;SDS011;48433;53.016;-2.260;2023-09-30T11:22:47;13.50;;;3.20;;
59308;SDS011;48433;53.016;-2.260;2023-09-30T11:25:17;12.88;;;3.45;;
59308;SDS011;48433;53.016;-2.260;2023-09-30T11:27:45;17.23;;;4.07;;
59308;SDS011;48433;53.016;-2.260;2023-09-30T11:30:14;13.75;;;3.50;;
59308;SDS011;48433;53.016;-2.260;2023-09-30T11:32:41;9.15;;;2.80;;
59308;SDS011;48433;53.016;-2.260;2023-09-30T11:35:21;10.85;;;2.70;;
59308;SDS011;48433;53.016;-2.260;2023-09-30T11:37:52;11.10;;;3.70;;
59308;SDS011;48433;53.016;-2.260;2023-09-30T11:40:20;13.60;;;2.72;;
59308;SDS011;48433;53.016;-2.260;2023-09-30T11:43:07;11.52;;;3.58;;
59308;SDS011;48433;53.016;-2.260;2023-09-30T11:45:36;7.32;;;2.08;;
59308;SDS011;48433;53.016;-2.260;2023-09-30T11:48:16;16.88;;;2.83;;
59308;SDS011;48433;53.016;-2.260;2023-09-30T11:50:49;10.32;;;2.40;;
59308;SDS011;48433;53.016;-2.260;2023-09-30T11:53:20;8.13;;;2.75;;
59308;SDS011;48433;53.016;-2.260;2023-09-30T11:55:49;8.05;;;2.10;;
59308;SDS011;48433;53.016;-2.260;2023-09-30T11:58:17;7.90;;;2.25;;
59308;SDS011;48433;53.016;-2.260;2023-09-30T12:00:46;14.38;;;2.65;;
59308;SDS011;48433;53.016;-2.260;2023-09-30T12:03:18;11.30;;;2.10;;
59308;SDS011;48433;53.016;-2.260;2023-09-30T12:05:45;10.98;;;2.28;;
59308;SDS011;48433;53.016;-2.260;2023-09-30T12:08:13;10.38;;;2.75;;
59308;SDS011;48433;53.016;-2.260;2023-09-30T12:10:41;11.88;;;2.63;;
59308;SDS011;48433;53.016;-2.260;2023-09-30T12:13:09;7.63;;;1.90;;
59308;SDS011;48433;53.016;-2.260;2023-09-30T12:15:38;14.02;;;2.60;;
59308;SDS011;48433;53.016;-2.260;2023-09-30T12:18:06;11.90;;;2.83;;
59308;SDS011;48433;53.016;-2.260;2023-09-30T12:20:34;11.30;;;2.28;;
59308;SDS011;48433;53.016;-2.260;2023-09-30T12:23:02;12.52;;;3.03;;
59308;SDS011;48433;53.016;-2.260;2023-09-30T12:25:32;10.40;;;3.20;;
59308;SDS011;48433;53.016;-2.260;2023-09-30T12:28:00;9.10;;;2.65;;
59308;SDS011;48433;53.016;-2.260;2023-09-30T12:30:28;9.40;;;3.05;;
59308;SDS011;48433;53.016;-2.260;2023-09-30T12:32:59;18.15;;;3.58;;
59308;SDS011;48433;53.016;-2.260;2023-09-30T12:35:27;12.52;;;3.30;;
59308;SDS011;48433;53.016;-2.260;2023-09-30T12:37:54;9.63;;;2.60;;
59308;SDS011;48433;53.016;-2.260;2023-09-30T12:40:22;9.32;;;2.83;;
59308;SDS011;48433;53.016;-2.260;2023-09-30T12:42:50;12.98;;;3.38;;
59308;SDS011;48433;53.016;-2.260;2023-09-30T12:45:18;16.02;;;5.80;;
59308;SDS011;48433;53.016;-2.260;2023-09-30T12:47:45;16.75;;;4.63;;
59308;SDS011;48433;53.016;-2.260;2023-09-30T12:50:15;17.17;;;4.70;;
59308;SDS011;48433;53.016;-2.260;2023-09-30T12:52:42;9.05;;;3.90;;
59308;SDS011;48433;53.016;-2.260;2023-09-30T12:55:11;17.83;;;4.75;;
59308;SDS011;48433;53.016;-2.260;2023-09-30T12:57:39;20.70;;;6.10;;
59308;SDS011;48433;53.016;-2.260;2023-09-30T13:00:06;20.30;;;5.53;;
59308;SDS011;48433;53.016;-2.260;2023-09-30T13:02:36;18.50;;;5.93;;
59308;SDS011;48433;53.016;-2.260;2023-09-30T13:05:05;16.52;;;5.75;;
59308;SDS011;48433;53.016;-2.260;2023-09-30T13:07:34;19.90;;;6.82;;
59308;SDS011;48433;53.016;-2.260;2023-09-30T13:10:01;19.08;;;6.25;;
59308;SDS011;48433;53.016;-2.260;2023-09-30T13:12:32;25.02;;;9.25;;
59308;SDS011;48433;53.016;-2.260;2023-09-30T13:15:00;21.25;;;6.88;;
59308;SDS011;48433;53.016;-2.260;2023-09-30T13:17:28;28.75;;;8.70;;
59308;SDS011;48433;53.016;-2.260;2023-09-30T13:19:56;28.35;;;8.52;;
59308;SDS011;48433;53.016;-2.260;2023-09-30T13:22:23;22.90;;;8.35;;
59308;SDS011;48433;53.016;-2.260;2023-09-30T13:24:51;27.42;;;9.07;;
59308;SDS011;48433;53.016;-2.260;2023-09-30T13:27:19;19.73;;;6.35;;
59308;SDS011;48433;53.016;-2.260;2023-09-30T13:29:48;14.35;;;5.78;;
59308;SDS011;48433;53.016;-2.260;2023-09-30T13:32:15;14.43;;;5.80;;
59308;SDS011;48433;53.016;-2.260;2023-09-30T13:34:45;18.30;;;5.97;;
59308;SDS011;48433;53.016;-2.260;2023-09-30T13:37:13;15.43;;;5.80;;
59308;SDS011;48433;53.016;-2.260;2023-09-30T13:39:41;11.20;;;4.35;;
59308;SDS011;48433;53.016;-2.260;2023-09-30T13:42:08;17.95;;;4.25;;
59308;SDS011;48433;53.016;-2.260;2023-09-30T13:44:36;16.95;;;4.72;;
59308;SDS011;48433;53.016;-2.260;2023-09-30T13:47:04;15.48;;;5.57;;
59308;SDS011;48433;53.016;-2.260;2023-09-30T13:49:32;15.38;;;4.55;;
59308;SDS011;48433;53.016;-2.260;2023-09-30T13:52:00;10.18;;;4.65;;
59308;SDS011;48433;53.016;-2.260;2023-09-30T13:54:28;13.77;;;4.93;;
59308;SDS011;48433;53.016;-2.260;2023-09-30T13:56:56;14.05;;;4.90;;
59308;SDS011;48433;53.016;-2.260;2023-09-30T13:59:24;13.65;;;5.35;;
59308;SDS011;48433;53.016;-2.260;2023-09-30T14:01:51;16.98;;;4.93;;
59308;SDS011;48433;53.016;-2.260;2023-09-30T14:04:20;15.02;;;5.10;;
59308;SDS011;48433;53.016;-2.260;2023-09-30T14:06:47;17.17;;;4.10;;
59308;SDS011;48433;53.016;-2.260;2023-09-30T14:09:15;13.77;;;5.00;;
59308;SDS011;48433;53.016;-2.260;2023-09-30T14:12:01;12.43;;;5.60;;
59308;SDS011;48433;53.016;-2.260;2023-09-30T14:14:32;14.57;;;5.32;;
59308;SDS011;48433;53.016;-2.260;2023-09-30T14:17:01;16.45;;;4.97;;
59308;SDS011;48433;53.016;-2.260;2023-09-30T14:19:34;18.23;;;4.82;;
59308;SDS011;48433;53.016;-2.260;2023-09-30T14:22:03;14.65;;;4.63;;
59308;SDS011;48433;53.016;-2.260;2023-09-30T14:24:32;22.13;;;5.53;;
59308;SDS011;48433;53.016;-2.260;2023-09-30T14:27:05;19.27;;;4.70;;
59308;SDS011;48433;53.016;-2.260;2023-09-30T14:29:34;19.63;;;5.82;;
59308;SDS011;48433;53.016;-2.260;2023-09-30T14:32:01;22.98;;;5.50;;
59308;SDS011;48433;53.016;-2.260;2023-09-30T14:34:29;13.68;;;4.25;;
59308;SDS011;48433;53.016;-2.260;2023-09-30T14:36:57;16.80;;;5.43;;
59308;SDS011;48433;53.016;-2.260;2023-09-30T14:39:25;12.93;;;3.53;;
59308;SDS011;48433;53.016;-2.260;2023-09-30T14:41:54;12.43;;;4.50;;
59308;SDS011;48433;53.016;-2.260;2023-09-30T14:44:22;10.52;;;4.70;;
59308;SDS011;48433;53.016;-2.260;2023-09-30T14:46:51;23.55;;;11.05;;
59308;SDS011;48433;53.016;-2.260;2023-09-30T14:49:19;20.48;;;7.75;;
59308;SDS011;48433;53.016;-2.260;2023-09-30T14:51:47;19.52;;;9.90;;